sensor_id;sensor_type;location;lat;lon;timestamp;temperature;humidity
18733;DHT22;9495;51.210;2.934;2023-03-01T00:01:26;2.80;99.90
18733;DHT22;9495;51.210;2.934;2023-03-01T00:03:55;2.80;99.90
18733;DHT22;9495;51.210;2.934;2023-03-01T00:06:25;2.80;99.90
18733;DHT22;9495;51.210;2.934;2023-03-01T00:08:54;3.00;99.90
18733;DHT22;9495;51.210;2.934;2023-03-01T00:11:24;2.90;99.90
18733;DHT22;9495;51.210;2.934;2023-03-01T00:13:54;2.70;99.90
18733;DHT22;9495;51.210;2.934;2023-03-01T00:16:26;2.80;99.90
18733;DHT22;9495;51.210;2.934;2023-03-01T00:18:56;2.80;99.90
18733;DHT22;9495;51.210;2.934;2023-03-01T00:21:25;2.70;99.90
18733;DHT22;9495;51.210;2.934;2023-03-01T00:23:54;2.70;99.90
18733;DHT22;9495;51.210;2.934;2023-03-01T00:26:24;2.60;99.90
18733;DHT22;9495;51.210;2.934;2023-03-01T00:28:53;2.60;99.90
18733;DHT22;9495;51.210;2.934;2023-03-01T00:31:25;2.60;99.90
18733;DHT22;9495;51.210;2.934;2023-03-01T00:33:55;2.70;99.90
18733;DHT22;9495;51.210;2.934;2023-03-01T00:36:25;2.50;99.90
18733;DHT22;9495;51.210;2.934;2023-03-01T00:38:55;2.40;99.90
18733;DHT22;9495;51.210;2.934;2023-03-01T00:41:23;2.40;99.90
18733;DHT22;9495;51.210;2.934;2023-03-01T00:43:54;2.50;99.90
18733;DHT22;9495;51.210;2.934;2023-03-01T00:46:25;2.30;99.90
18733;DHT22;9495;51.210;2.934;2023-03-01T00:48:54;2.20;99.90
18733;DHT22;9495;51.210;2.934;2023-03-01T00:51:24;2.30;99.90
18733;DHT22;9495;51.210;2.934;2023-03-01T00:53:55;2.30;99.90
18733;DHT22;9495;51.210;2.934;2023-03-01T00:56:24;2.40;99.90
18733;DHT22;9495;51.210;2.934;2023-03-01T00:58:53;2.30;99.90
18733;DHT22;9495;51.210;2.934;2023-03-01T01:01:23;2.40;99.90
18733;DHT22;9495;51.210;2.934;2023-03-01T01:03:57;2.30;99.90
18733;DHT22;9495;51.210;2.934;2023-03-01T01:06:28;2.30;99.90
18733;DHT22;9495;51.210;2.934;2023-03-01T01:08:57;2.10;99.90
18733;DHT22;9495;51.210;2.934;2023-03-01T01:11:28;2.30;99.90
18733;DHT22;9495;51.210;2.934;2023-03-01T01:13:57;2.10;99.90
18733;DHT22;9495;51.210;2.934;2023-03-01T01:16:26;2.20;99.90
18733;DHT22;9495;51.210;2.934;2023-03-01T01:18:58;2.20;99.90
18733;DHT22;9495;51.210;2.934;2023-03-01T01:21:26;2.20;99.90
18733;DHT22;9495;51.210;2.934;2023-03-01T01:23:55;2.30;99.90
18733;DHT22;9495;51.210;2.934;2023-03-01T01:26:25;2.40;99.90
18733;DHT22;9495;51.210;2.934;2023-03-01T01:28:54;2.40;99.90
18733;DHT22;9495;51.210;2.934;2023-03-01T01:31:23;2.40;99.90
18733;DHT22;9495;51.210;2.934;2023-03-01T01:33:54;2.40;99.90
18733;DHT22;9495;51.210;2.934;2023-03-01T01:36:24;2.40;99.90
18733;DHT22;9495;51.210;2.934;2023-03-01T01:38:52;2.40;99.90
18733;DHT22;9495;51.210;2.934;2023-03-01T01:41:21;2.50;99.90
18733;DHT22;9495;51.210;2.934;2023-03-01T01:44:11;2.50;99.90
18733;DHT22;9495;51.210;2.934;2023-03-01T01:46:41;2.30;99.90
18733;DHT22;9495;51.210;2.934;2023-03-01T01:49:22;2.40;99.90
18733;DHT22;9495;51.210;2.934;2023-03-01T01:52:00;2.30;99.90
18733;DHT22;9495;51.210;2.934;2023-03-01T01:54:34;2.20;99.90
18733;DHT22;9495;51.210;2.934;2023-03-01T01:57:09;2.30;99.90
18733;DHT22;9495;51.210;2.934;2023-03-01T01:59:40;2.30;99.90
18733;DHT22;9495;51.210;2.934;2023-03-01T02:02:09;2.40;99.90
18733;DHT22;9495;51.210;2.934;2023-03-01T02:04:39;2.40;99.90
18733;DHT22;9495;51.210;2.934;2023-03-01T02:07:15;2.40;99.90
18733;DHT22;9495;51.210;2.934;2023-03-01T02:09:46;2.40;99.90
18733;DHT22;9495;51.210;2.934;2023-03-01T02:12:17;2.40;99.90
18733;DHT22;9495;51.210;2.934;2023-03-01T02:14:46;2.40;99.90
18733;DHT22;9495;51.210;2.934;2023-03-01T02:17:16;2.30;99.90
18733;DHT22;9495;51.210;2.934;2023-03-01T02:19:53;2.40;99.90
18733;DHT22;9495;51.210;2.934;2023-03-01T02:22:30;2.30;99.90
18733;DHT22;9495;51.210;2.934;2023-03-01T02:25:06;2.40;99.90
18733;DHT22;9495;51.210;2.934;2023-03-01T02:27:42;2.40;99.90
18733;DHT22;9495;51.210;2.934;2023-03-01T02:30:16;2.40;99.90
18733;DHT22;9495;51.210;2.934;2023-03-01T02:32:46;2.40;99.90
18733;DHT22;9495;51.210;2.934;2023-03-01T02:35:16;2.40;99.90
18733;DHT22;9495;51.210;2.934;2023-03-01T02:37:45;2.40;99.90
18733;DHT22;9495;51.210;2.934;2023-03-01T02:42:49;2.40;99.90
18733;DHT22;9495;51.210;2.934;2023-03-01T02:45:20;2.50;99.90
18733;DHT22;9495;51.210;2.934;2023-03-01T02:47:52;2.50;99.90
18733;DHT22;9495;51.210;2.934;2023-03-01T02:50:45;2.40;99.90
18733;DHT22;9495;51.210;2.934;2023-03-01T02:53:19;2.40;99.90
18733;DHT22;9495;51.210;2.934;2023-03-01T02:55:51;2.30;99.90
18733;DHT22;9495;51.210;2.934;2023-03-01T02:58:19;2.30;99.90
18733;DHT22;9495;51.210;2.934;2023-03-01T03:00:49;2.30;99.90
18733;DHT22;9495;51.210;2.934;2023-03-01T03:03:20;2.30;99.90
18733;DHT22;9495;51.210;2.934;2023-03-01T03:05:49;2.30;99.90
18733;DHT22;9495;51.210;2.934;2023-03-01T03:08:17;2.30;99.90
18733;DHT22;9495;51.210;2.934;2023-03-01T03:10:51;2.30;99.90
18733;DHT22;9495;51.210;2.934;2023-03-01T03:13:19;2.30;99.90
18733;DHT22;9495;51.210;2.934;2023-03-01T03:15:50;2.20;99.90
18733;DHT22;9495;51.210;2.934;2023-03-01T03:18:19;2.20;99.90
18733;DHT22;9495;51.210;2.934;2023-03-01T03:20:50;2.10;99.90
18733;DHT22;9495;51.210;2.934;2023-03-01T03:23:20;2.00;99.90
18733;DHT22;9495;51.210;2.934;2023-03-01T03:25:49;2.00;99.90
18733;DHT22;9495;51.210;2.934;2023-03-01T03:28:18;2.00;99.90
18733;DHT22;9495;51.210;2.934;2023-03-01T03:30:46;2.00;99.90
18733;DHT22;9495;51.210;2.934;2023-03-01T03:33:16;2.00;99.90
18733;DHT22;9495;51.210;2.934;2023-03-01T03:35:46;2.00;99.90
18733;DHT22;9495;51.210;2.934;2023-03-01T03:38:16;1.90;99.90
18733;DHT22;9495;51.210;2.934;2023-03-01T03:40:47;1.80;99.90
18733;DHT22;9495;51.210;2.934;2023-03-01T03:43:18;1.80;99.90
18733;DHT22;9495;51.210;2.934;2023-03-01T03:45:47;1.80;99.90
18733;DHT22;9495;51.210;2.934;2023-03-01T03:48:18;2.00;99.90
18733;DHT22;9495;51.210;2.934;2023-03-01T03:50:49;2.00;99.90
18733;DHT22;9495;51.210;2.934;2023-03-01T03:53:18;2.00;99.90
18733;DHT22;9495;51.210;2.934;2023-03-01T03:55:47;2.10;99.90
18733;DHT22;9495;51.210;2.934;2023-03-01T03:58:17;2.10;99.90
18733;DHT22;9495;51.210;2.934;2023-03-01T04:00:49;2.10;99.90
18733;DHT22;9495;51.210;2.934;2023-03-01T04:03:20;2.20;99.90
18733;DHT22;9495;51.210;2.934;2023-03-01T04:05:49;2.20;99.90
18733;DHT22;9495;51.210;2.934;2023-03-01T04:08:18;2.20;99.90
18733;DHT22;9495;51.210;2.934;2023-03-01T04:10:50;2.10;99.90
18733;DHT22;9495;51.210;2.934;2023-03-01T04:13:20;2.10;99.90
18733;DHT22;9495;51.210;2.934;2023-03-01T04:15:49;2.10;99.90
18733;DHT22;9495;51.210;2.934;2023-03-01T04:18:21;2.00;99.90
18733;DHT22;9495;51.210;2.934;2023-03-01T04:20:50;2.00;99.90
18733;DHT22;9495;51.210;2.934;2023-03-01T04:23:22;1.90;99.90
18733;DHT22;9495;51.210;2.934;2023-03-01T04:25:52;1.90;99.90
18733;DHT22;9495;51.210;2.934;2023-03-01T04:28:22;1.90;99.90
18733;DHT22;9495;51.210;2.934;2023-03-01T04:30:52;2.00;99.90
18733;DHT22;9495;51.210;2.934;2023-03-01T04:33:23;2.00;99.90
18733;DHT22;9495;51.210;2.934;2023-03-01T04:35:52;2.10;99.90
18733;DHT22;9495;51.210;2.934;2023-03-01T04:38:21;2.10;99.90
18733;DHT22;9495;51.210;2.934;2023-03-01T04:40:49;2.10;99.90
18733;DHT22;9495;51.210;2.934;2023-03-01T04:43:18;2.10;99.90
18733;DHT22;9495;51.210;2.934;2023-03-01T04:45:46;2.10;99.90
18733;DHT22;9495;51.210;2.934;2023-03-01T04:48:15;2.10;99.90
18733;DHT22;9495;51.210;2.934;2023-03-01T04:50:45;2.10;99.90
18733;DHT22;9495;51.210;2.934;2023-03-01T04:53:13;2.10;99.90
18733;DHT22;9495;51.210;2.934;2023-03-01T04:55:42;2.00;99.90
18733;DHT22;9495;51.210;2.934;2023-03-01T04:58:10;2.10;99.90
18733;DHT22;9495;51.210;2.934;2023-03-01T05:00:39;2.10;99.90
18733;DHT22;9495;51.210;2.934;2023-03-01T05:03:08;2.00;99.90
18733;DHT22;9495;51.210;2.934;2023-03-01T05:05:38;1.90;99.90
18733;DHT22;9495;51.210;2.934;2023-03-01T05:08:08;1.90;99.90
18733;DHT22;9495;51.210;2.934;2023-03-01T05:10:45;1.90;99.90
18733;DHT22;9495;51.210;2.934;2023-03-01T05:13:14;1.90;99.90
18733;DHT22;9495;51.210;2.934;2023-03-01T05:15:48;1.70;99.90
18733;DHT22;9495;51.210;2.934;2023-03-01T05:18:17;1.70;99.90
18733;DHT22;9495;51.210;2.934;2023-03-01T05:20:45;1.60;99.90
18733;DHT22;9495;51.210;2.934;2023-03-01T05:23:15;1.60;99.90
18733;DHT22;9495;51.210;2.934;2023-03-01T05:25:44;1.60;99.90
18733;DHT22;9495;51.210;2.934;2023-03-01T05:28:13;1.60;99.90
18733;DHT22;9495;51.210;2.934;2023-03-01T05:30:41;1.60;99.90
18733;DHT22;9495;51.210;2.934;2023-03-01T05:33:10;1.60;99.90
18733;DHT22;9495;51.210;2.934;2023-03-01T05:35:41;1.60;99.90
18733;DHT22;9495;51.210;2.934;2023-03-01T05:38:10;1.70;99.90
18733;DHT22;9495;51.210;2.934;2023-03-01T05:40:42;1.60;99.90
18733;DHT22;9495;51.210;2.934;2023-03-01T05:43:12;1.60;99.90
18733;DHT22;9495;51.210;2.934;2023-03-01T05:45:41;1.60;99.90
18733;DHT22;9495;51.210;2.934;2023-03-01T05:48:10;1.70;99.90
18733;DHT22;9495;51.210;2.934;2023-03-01T05:50:41;1.80;99.90
18733;DHT22;9495;51.210;2.934;2023-03-01T05:53:12;1.80;99.90
18733;DHT22;9495;51.210;2.934;2023-03-01T05:55:42;1.90;99.90
18733;DHT22;9495;51.210;2.934;2023-03-01T05:58:12;1.90;99.90
18733;DHT22;9495;51.210;2.934;2023-03-01T06:00:42;1.90;99.90
18733;DHT22;9495;51.210;2.934;2023-03-01T06:03:12;1.80;99.90
18733;DHT22;9495;51.210;2.934;2023-03-01T06:05:41;1.80;99.90
18733;DHT22;9495;51.210;2.934;2023-03-01T06:08:11;1.90;99.90
18733;DHT22;9495;51.210;2.934;2023-03-01T06:10:41;1.90;99.90
18733;DHT22;9495;51.210;2.934;2023-03-01T06:13:10;1.80;99.90
18733;DHT22;9495;51.210;2.934;2023-03-01T06:15:38;1.80;99.90
18733;DHT22;9495;51.210;2.934;2023-03-01T06:18:07;1.80;99.90
18733;DHT22;9495;51.210;2.934;2023-03-01T06:20:35;1.80;99.90
18733;DHT22;9495;51.210;2.934;2023-03-01T06:23:03;1.70;99.90
18733;DHT22;9495;51.210;2.934;2023-03-01T06:25:32;1.70;99.90
18733;DHT22;9495;51.210;2.934;2023-03-01T06:28:02;1.50;99.90
18733;DHT22;9495;51.210;2.934;2023-03-01T06:30:31;1.40;99.90
18733;DHT22;9495;51.210;2.934;2023-03-01T06:33:00;1.60;99.90
18733;DHT22;9495;51.210;2.934;2023-03-01T06:35:29;1.50;99.90
18733;DHT22;9495;51.210;2.934;2023-03-01T06:37:59;1.40;99.90
18733;DHT22;9495;51.210;2.934;2023-03-01T06:40:27;1.40;99.90
18733;DHT22;9495;51.210;2.934;2023-03-01T06:42:56;1.50;99.90
18733;DHT22;9495;51.210;2.934;2023-03-01T06:45:26;1.40;99.90
18733;DHT22;9495;51.210;2.934;2023-03-01T06:48:02;1.40;99.90
18733;DHT22;9495;51.210;2.934;2023-03-01T06:50:31;1.60;99.90
18733;DHT22;9495;51.210;2.934;2023-03-01T06:53:00;1.60;99.90
18733;DHT22;9495;51.210;2.934;2023-03-01T06:55:29;1.60;99.90
18733;DHT22;9495;51.210;2.934;2023-03-01T06:57:58;1.70;99.90
18733;DHT22;9495;51.210;2.934;2023-03-01T07:00:28;1.60;99.90
18733;DHT22;9495;51.210;2.934;2023-03-01T07:02:58;1.80;99.90
18733;DHT22;9495;51.210;2.934;2023-03-01T07:05:29;1.90;99.90
18733;DHT22;9495;51.210;2.934;2023-03-01T07:07:57;2.00;99.90
18733;DHT22;9495;51.210;2.934;2023-03-01T07:10:26;2.00;99.90
18733;DHT22;9495;51.210;2.934;2023-03-01T07:12:55;2.00;99.90
18733;DHT22;9495;51.210;2.934;2023-03-01T07:15:25;2.00;99.90
18733;DHT22;9495;51.210;2.934;2023-03-01T07:17:56;2.10;99.90
18733;DHT22;9495;51.210;2.934;2023-03-01T07:20:25;2.20;99.90
18733;DHT22;9495;51.210;2.934;2023-03-01T07:22:54;2.20;99.90
18733;DHT22;9495;51.210;2.934;2023-03-01T07:25:23;2.20;99.90
18733;DHT22;9495;51.210;2.934;2023-03-01T07:27:52;2.30;99.90
18733;DHT22;9495;51.210;2.934;2023-03-01T07:30:21;2.40;99.90
18733;DHT22;9495;51.210;2.934;2023-03-01T07:32:55;2.30;99.90
18733;DHT22;9495;51.210;2.934;2023-03-01T07:35:25;2.40;99.90
18733;DHT22;9495;51.210;2.934;2023-03-01T07:37:54;2.40;99.90
18733;DHT22;9495;51.210;2.934;2023-03-01T07:40:22;2.50;99.90
18733;DHT22;9495;51.210;2.934;2023-03-01T07:42:57;2.50;99.90
18733;DHT22;9495;51.210;2.934;2023-03-01T07:45:26;2.60;99.90
18733;DHT22;9495;51.210;2.934;2023-03-01T07:47:56;2.60;99.90
18733;DHT22;9495;51.210;2.934;2023-03-01T07:50:24;2.70;99.90
18733;DHT22;9495;51.210;2.934;2023-03-01T07:52:52;2.70;99.90
18733;DHT22;9495;51.210;2.934;2023-03-01T07:55:21;2.80;99.90
18733;DHT22;9495;51.210;2.934;2023-03-01T07:57:49;2.80;99.90
18733;DHT22;9495;51.210;2.934;2023-03-01T08:00:18;2.80;99.90
18733;DHT22;9495;51.210;2.934;2023-03-01T08:02:47;2.90;99.90
18733;DHT22;9495;51.210;2.934;2023-03-01T08:05:17;2.90;99.90
18733;DHT22;9495;51.210;2.934;2023-03-01T08:07:46;3.00;99.90
18733;DHT22;9495;51.210;2.934;2023-03-01T08:10:14;3.00;99.90
18733;DHT22;9495;51.210;2.934;2023-03-01T08:12:43;3.00;99.90
18733;DHT22;9495;51.210;2.934;2023-03-01T08:15:11;3.10;99.90
18733;DHT22;9495;51.210;2.934;2023-03-01T08:17:40;3.10;99.90
18733;DHT22;9495;51.210;2.934;2023-03-01T08:20:09;3.10;99.90
18733;DHT22;9495;51.210;2.934;2023-03-01T08:22:40;3.20;99.90
18733;DHT22;9495;51.210;2.934;2023-03-01T08:25:09;3.20;99.90
18733;DHT22;9495;51.210;2.934;2023-03-01T08:27:38;3.30;99.90
18733;DHT22;9495;51.210;2.934;2023-03-01T08:30:07;3.30;99.90
18733;DHT22;9495;51.210;2.934;2023-03-01T08:32:37;3.40;99.90
18733;DHT22;9495;51.210;2.934;2023-03-01T08:35:06;3.50;99.90
18733;DHT22;9495;51.210;2.934;2023-03-01T08:37:35;3.50;99.90
18733;DHT22;9495;51.210;2.934;2023-03-01T08:40:06;3.60;99.90
18733;DHT22;9495;51.210;2.934;2023-03-01T08:42:36;3.60;99.90
18733;DHT22;9495;51.210;2.934;2023-03-01T08:45:06;3.70;99.90
18733;DHT22;9495;51.210;2.934;2023-03-01T08:47:35;3.70;99.90
18733;DHT22;9495;51.210;2.934;2023-03-01T08:50:05;3.80;99.90
18733;DHT22;9495;51.210;2.934;2023-03-01T08:52:33;3.90;99.90
18733;DHT22;9495;51.210;2.934;2023-03-01T08:55:04;3.90;99.90
18733;DHT22;9495;51.210;2.934;2023-03-01T08:57:33;4.00;99.90
18733;DHT22;9495;51.210;2.934;2023-03-01T09:00:01;4.00;99.90
18733;DHT22;9495;51.210;2.934;2023-03-01T09:02:30;4.10;99.90
18733;DHT22;9495;51.210;2.934;2023-03-01T09:04:59;4.10;99.90
18733;DHT22;9495;51.210;2.934;2023-03-01T09:07:27;4.20;99.90
18733;DHT22;9495;51.210;2.934;2023-03-01T09:09:56;4.20;99.90
18733;DHT22;9495;51.210;2.934;2023-03-01T09:12:25;4.30;99.90
18733;DHT22;9495;51.210;2.934;2023-03-01T09:14:54;4.30;99.90
18733;DHT22;9495;51.210;2.934;2023-03-01T09:17:22;4.40;99.90
18733;DHT22;9495;51.210;2.934;2023-03-01T09:19:51;4.40;99.90
18733;DHT22;9495;51.210;2.934;2023-03-01T09:22:19;4.50;99.90
18733;DHT22;9495;51.210;2.934;2023-03-01T09:24:47;4.50;99.90
18733;DHT22;9495;51.210;2.934;2023-03-01T09:27:16;4.60;99.90
18733;DHT22;9495;51.210;2.934;2023-03-01T09:29:47;4.70;99.90
18733;DHT22;9495;51.210;2.934;2023-03-01T09:32:15;4.70;99.90
18733;DHT22;9495;51.210;2.934;2023-03-01T09:34:44;4.70;99.90
18733;DHT22;9495;51.210;2.934;2023-03-01T09:37:31;4.80;99.90
18733;DHT22;9495;51.210;2.934;2023-03-01T09:40:00;4.80;99.90
18733;DHT22;9495;51.210;2.934;2023-03-01T09:42:31;4.90;99.90
18733;DHT22;9495;51.210;2.934;2023-03-01T09:45:05;4.90;99.90
18733;DHT22;9495;51.210;2.934;2023-03-01T09:47:35;5.00;99.90
18733;DHT22;9495;51.210;2.934;2023-03-01T09:50:06;5.10;99.90
18733;DHT22;9495;51.210;2.934;2023-03-01T09:52:40;5.30;99.90
18733;DHT22;9495;51.210;2.934;2023-03-01T09:55:12;5.30;99.90
18733;DHT22;9495;51.210;2.934;2023-03-01T09:57:46;5.30;99.90
18733;DHT22;9495;51.210;2.934;2023-03-01T10:00:30;5.40;99.90
18733;DHT22;9495;51.210;2.934;2023-03-01T10:03:10;5.40;99.90
18733;DHT22;9495;51.210;2.934;2023-03-01T10:05:58;5.50;99.90
18733;DHT22;9495;51.210;2.934;2023-03-01T10:08:31;5.60;99.90
18733;DHT22;9495;51.210;2.934;2023-03-01T10:11:04;5.60;99.90
18733;DHT22;9495;51.210;2.934;2023-03-01T10:13:45;5.60;99.90
18733;DHT22;9495;51.210;2.934;2023-03-01T10:16:21;5.70;99.90
18733;DHT22;9495;51.210;2.934;2023-03-01T10:18:53;5.60;99.90
18733;DHT22;9495;51.210;2.934;2023-03-01T10:21:25;5.70;99.90
18733;DHT22;9495;51.210;2.934;2023-03-01T10:24:10;5.70;99.90
18733;DHT22;9495;51.210;2.934;2023-03-01T10:26:44;5.80;99.90
18733;DHT22;9495;51.210;2.934;2023-03-01T10:29:16;5.70;99.90
18733;DHT22;9495;51.210;2.934;2023-03-01T10:31:46;5.80;99.90
18733;DHT22;9495;51.210;2.934;2023-03-01T10:34:18;5.80;99.90
18733;DHT22;9495;51.210;2.934;2023-03-01T10:36:49;5.90;99.90
18733;DHT22;9495;51.210;2.934;2023-03-01T10:39:19;6.00;99.90
18733;DHT22;9495;51.210;2.934;2023-03-01T10:41:59;6.00;99.90
18733;DHT22;9495;51.210;2.934;2023-03-01T10:44:40;6.00;99.90
18733;DHT22;9495;51.210;2.934;2023-03-01T10:47:19;6.10;99.90
18733;DHT22;9495;51.210;2.934;2023-03-01T10:49:57;6.10;99.90
18733;DHT22;9495;51.210;2.934;2023-03-01T10:52:32;6.00;99.90
18733;DHT22;9495;51.210;2.934;2023-03-01T10:55:04;6.20;99.90
18733;DHT22;9495;51.210;2.934;2023-03-01T10:57:46;6.20;99.90
18733;DHT22;9495;51.210;2.934;2023-03-01T11:00:21;6.30;99.90
18733;DHT22;9495;51.210;2.934;2023-03-01T11:03:02;6.20;99.90
18733;DHT22;9495;51.210;2.934;2023-03-01T11:05:31;6.30;99.90
18733;DHT22;9495;51.210;2.934;2023-03-01T11:08:01;6.20;99.90
18733;DHT22;9495;51.210;2.934;2023-03-01T11:10:32;6.30;99.90
18733;DHT22;9495;51.210;2.934;2023-03-01T11:13:08;6.30;99.90
18733;DHT22;9495;51.210;2.934;2023-03-01T11:15:41;6.30;99.90
18733;DHT22;9495;51.210;2.934;2023-03-01T11:18:22;6.30;99.90
18733;DHT22;9495;51.210;2.934;2023-03-01T11:21:07;6.30;99.90
18733;DHT22;9495;51.210;2.934;2023-03-01T11:23:37;6.40;99.90
18733;DHT22;9495;51.210;2.934;2023-03-01T11:26:09;6.40;99.90
18733;DHT22;9495;51.210;2.934;2023-03-01T11:28:40;6.40;99.90
18733;DHT22;9495;51.210;2.934;2023-03-01T11:31:11;6.50;99.90
18733;DHT22;9495;51.210;2.934;2023-03-01T11:33:44;6.40;99.90
18733;DHT22;9495;51.210;2.934;2023-03-01T11:36:23;6.40;99.90
18733;DHT22;9495;51.210;2.934;2023-03-01T11:38:55;6.50;99.90
18733;DHT22;9495;51.210;2.934;2023-03-01T11:41:26;6.60;99.90
18733;DHT22;9495;51.210;2.934;2023-03-01T11:43:58;6.70;99.90
18733;DHT22;9495;51.210;2.934;2023-03-01T11:46:50;6.80;99.90
18733;DHT22;9495;51.210;2.934;2023-03-01T11:49:40;6.90;99.90
18733;DHT22;9495;51.210;2.934;2023-03-01T11:52:21;6.90;99.90
18733;DHT22;9495;51.210;2.934;2023-03-01T11:55:02;6.80;99.90
18733;DHT22;9495;51.210;2.934;2023-03-01T11:57:49;6.80;99.90
18733;DHT22;9495;51.210;2.934;2023-03-01T12:00:31;6.90;99.90
18733;DHT22;9495;51.210;2.934;2023-03-01T12:03:25;6.90;99.90
18733;DHT22;9495;51.210;2.934;2023-03-01T12:09:01;6.90;99.90
18733;DHT22;9495;51.210;2.934;2023-03-01T12:11:41;6.90;99.90
18733;DHT22;9495;51.210;2.934;2023-03-01T12:14:25;6.90;99.90
18733;DHT22;9495;51.210;2.934;2023-03-01T12:17:13;6.90;99.90
18733;DHT22;9495;51.210;2.934;2023-03-01T12:19:56;7.00;99.90
18733;DHT22;9495;51.210;2.934;2023-03-01T12:22:31;7.00;99.90
18733;DHT22;9495;51.210;2.934;2023-03-01T12:25:21;7.10;99.90
18733;DHT22;9495;51.210;2.934;2023-03-01T12:28:04;7.30;99.90
18733;DHT22;9495;51.210;2.934;2023-03-01T12:30:44;7.20;99.90
18733;DHT22;9495;51.210;2.934;2023-03-01T12:33:22;7.20;99.90
18733;DHT22;9495;51.210;2.934;2023-03-01T12:36:21;7.20;99.90
18733;DHT22;9495;51.210;2.934;2023-03-01T12:39:00;7.10;99.90
18733;DHT22;9495;51.210;2.934;2023-03-01T12:41:55;7.20;99.90
18733;DHT22;9495;51.210;2.934;2023-03-01T12:44:41;7.10;99.90
18733;DHT22;9495;51.210;2.934;2023-03-01T12:47:23;7.20;99.90
18733;DHT22;9495;51.210;2.934;2023-03-01T12:49:56;7.30;99.90
18733;DHT22;9495;51.210;2.934;2023-03-01T12:52:33;7.30;99.90
18733;DHT22;9495;51.210;2.934;2023-03-01T12:55:19;7.20;99.90
18733;DHT22;9495;51.210;2.934;2023-03-01T12:57:59;7.20;99.90
18733;DHT22;9495;51.210;2.934;2023-03-01T13:00:32;7.20;99.90
18733;DHT22;9495;51.210;2.934;2023-03-01T13:03:13;7.20;99.90
18733;DHT22;9495;51.210;2.934;2023-03-01T13:05:52;7.30;99.90
18733;DHT22;9495;51.210;2.934;2023-03-01T13:08:29;7.30;99.90
18733;DHT22;9495;51.210;2.934;2023-03-01T13:11:03;7.20;99.90
18733;DHT22;9495;51.210;2.934;2023-03-01T13:13:33;7.40;99.90
18733;DHT22;9495;51.210;2.934;2023-03-01T13:16:27;7.50;99.90
18733;DHT22;9495;51.210;2.934;2023-03-01T13:19:10;7.30;99.90
18733;DHT22;9495;51.210;2.934;2023-03-01T13:21:42;7.20;99.90
18733;DHT22;9495;51.210;2.934;2023-03-01T13:24:25;7.40;99.90
18733;DHT22;9495;51.210;2.934;2023-03-01T13:27:21;7.40;99.90
18733;DHT22;9495;51.210;2.934;2023-03-01T13:29:53;7.40;99.90
18733;DHT22;9495;51.210;2.934;2023-03-01T13:32:24;7.50;99.90
18733;DHT22;9495;51.210;2.934;2023-03-01T13:35:43;7.40;99.90
18733;DHT22;9495;51.210;2.934;2023-03-01T13:38:36;7.60;99.90
18733;DHT22;9495;51.210;2.934;2023-03-01T13:41:05;7.30;99.90
18733;DHT22;9495;51.210;2.934;2023-03-01T13:43:37;7.30;99.90
18733;DHT22;9495;51.210;2.934;2023-03-01T13:46:11;7.40;99.90
18733;DHT22;9495;51.210;2.934;2023-03-01T13:48:44;7.30;99.90
18733;DHT22;9495;51.210;2.934;2023-03-01T13:51:14;7.30;99.90
18733;DHT22;9495;51.210;2.934;2023-03-01T13:53:44;7.20;99.90
18733;DHT22;9495;51.210;2.934;2023-03-01T13:56:15;7.30;99.90
18733;DHT22;9495;51.210;2.934;2023-03-01T13:58:48;7.30;99.90
18733;DHT22;9495;51.210;2.934;2023-03-01T14:01:25;7.30;99.90
18733;DHT22;9495;51.210;2.934;2023-03-01T14:03:54;7.40;99.90
18733;DHT22;9495;51.210;2.934;2023-03-01T14:06:24;7.40;99.90
18733;DHT22;9495;51.210;2.934;2023-03-01T14:09:03;7.40;99.90
18733;DHT22;9495;51.210;2.934;2023-03-01T14:12:03;7.50;99.90
18733;DHT22;9495;51.210;2.934;2023-03-01T14:14:41;7.40;99.90
18733;DHT22;9495;51.210;2.934;2023-03-01T14:17:37;7.30;99.90
18733;DHT22;9495;51.210;2.934;2023-03-01T14:20:12;7.40;99.90
18733;DHT22;9495;51.210;2.934;2023-03-01T14:22:43;7.50;99.90
18733;DHT22;9495;51.210;2.934;2023-03-01T14:25:26;7.40;99.90
18733;DHT22;9495;51.210;2.934;2023-03-01T14:28:00;7.40;99.90
18733;DHT22;9495;51.210;2.934;2023-03-01T14:30:36;7.60;99.90
18733;DHT22;9495;51.210;2.934;2023-03-01T14:33:16;7.20;99.90
18733;DHT22;9495;51.210;2.934;2023-03-01T14:35:53;7.40;99.90
18733;DHT22;9495;51.210;2.934;2023-03-01T14:38:23;7.20;99.90
18733;DHT22;9495;51.210;2.934;2023-03-01T14:40:58;7.20;99.90
18733;DHT22;9495;51.210;2.934;2023-03-01T14:43:27;7.50;99.90
18733;DHT22;9495;51.210;2.934;2023-03-01T14:45:58;7.50;99.90
18733;DHT22;9495;51.210;2.934;2023-03-01T14:48:27;7.20;99.90
18733;DHT22;9495;51.210;2.934;2023-03-01T14:50:57;7.40;99.90
18733;DHT22;9495;51.210;2.934;2023-03-01T14:53:28;7.40;99.90
18733;DHT22;9495;51.210;2.934;2023-03-01T14:56:15;7.50;99.90
18733;DHT22;9495;51.210;2.934;2023-03-01T14:58:44;7.10;99.90
18733;DHT22;9495;51.210;2.934;2023-03-01T15:01:17;7.30;99.90
18733;DHT22;9495;51.210;2.934;2023-03-01T15:03:47;7.20;99.90
18733;DHT22;9495;51.210;2.934;2023-03-01T15:06:17;7.30;99.90
18733;DHT22;9495;51.210;2.934;2023-03-01T15:08:48;7.00;99.90
18733;DHT22;9495;51.210;2.934;2023-03-01T15:11:20;7.30;99.90
18733;DHT22;9495;51.210;2.934;2023-03-01T15:13:52;7.30;99.90
18733;DHT22;9495;51.210;2.934;2023-03-01T15:16:23;7.20;99.90
18733;DHT22;9495;51.210;2.934;2023-03-01T15:18:54;7.10;99.90
18733;DHT22;9495;51.210;2.934;2023-03-01T15:21:24;7.10;99.90
18733;DHT22;9495;51.210;2.934;2023-03-01T15:24:05;7.40;99.90
18733;DHT22;9495;51.210;2.934;2023-03-01T15:26:41;7.40;99.90
18733;DHT22;9495;51.210;2.934;2023-03-01T15:29:16;7.50;99.90
18733;DHT22;9495;51.210;2.934;2023-03-01T15:31:56;7.40;99.90
18733;DHT22;9495;51.210;2.934;2023-03-01T15:34:27;7.10;99.90
18733;DHT22;9495;51.210;2.934;2023-03-01T15:36:56;7.10;99.90
18733;DHT22;9495;51.210;2.934;2023-03-01T15:39:41;7.40;99.90
18733;DHT22;9495;51.210;2.934;2023-03-01T15:42:12;7.30;99.90
18733;DHT22;9495;51.210;2.934;2023-03-01T15:44:43;7.20;99.90
18733;DHT22;9495;51.210;2.934;2023-03-01T15:47:26;7.40;99.90
18733;DHT22;9495;51.210;2.934;2023-03-01T15:49:57;7.40;99.90
18733;DHT22;9495;51.210;2.934;2023-03-01T15:52:28;7.40;99.90
18733;DHT22;9495;51.210;2.934;2023-03-01T15:54:58;7.40;99.90
18733;DHT22;9495;51.210;2.934;2023-03-01T15:57:27;7.20;99.90
18733;DHT22;9495;51.210;2.934;2023-03-01T15:59:56;7.30;99.90
18733;DHT22;9495;51.210;2.934;2023-03-01T16:02:26;7.50;99.90
18733;DHT22;9495;51.210;2.934;2023-03-01T16:04:54;7.40;99.90
18733;DHT22;9495;51.210;2.934;2023-03-01T16:07:24;7.20;99.90
18733;DHT22;9495;51.210;2.934;2023-03-01T16:09:54;7.40;99.90
18733;DHT22;9495;51.210;2.934;2023-03-01T16:12:23;7.20;99.90
18733;DHT22;9495;51.210;2.934;2023-03-01T16:14:52;7.10;99.90
18733;DHT22;9495;51.210;2.934;2023-03-01T16:17:21;7.10;99.90
18733;DHT22;9495;51.210;2.934;2023-03-01T16:19:51;7.10;99.90
18733;DHT22;9495;51.210;2.934;2023-03-01T16:22:19;7.30;99.90
18733;DHT22;9495;51.210;2.934;2023-03-01T16:24:52;7.20;99.90
18733;DHT22;9495;51.210;2.934;2023-03-01T16:27:20;7.40;99.90
18733;DHT22;9495;51.210;2.934;2023-03-01T16:29:49;7.10;99.90
18733;DHT22;9495;51.210;2.934;2023-03-01T16:32:18;7.10;99.90
18733;DHT22;9495;51.210;2.934;2023-03-01T16:34:46;7.00;99.90
18733;DHT22;9495;51.210;2.934;2023-03-01T16:37:17;7.10;99.90
18733;DHT22;9495;51.210;2.934;2023-03-01T16:39:46;7.20;99.90
18733;DHT22;9495;51.210;2.934;2023-03-01T16:42:17;7.10;99.90